sensor_id;sensor_type;location;lat;lon;timestamp;P1;durP1;ratioP1;P2;durP2;ratioP2
11230;SDS011;5672;51.060;3.734;2022-11-14T00:00:38;30.13;;;24.37;;
11230;SDS011;5672;51.060;3.734;2022-11-14T00:03:05;34.87;;;26.07;;
11230;SDS011;5672;51.060;3.734;2022-11-14T00:05:32;31.10;;;26.33;;
11230;SDS011;5672;51.060;3.734;2022-11-14T00:07:58;31.10;;;25.27;;
11230;SDS011;5672;51.060;3.734;2022-11-14T00:10:24;30.60;;;25.83;;
11230;SDS011;5672;51.060;3.734;2022-11-14T00:12:50;30.50;;;25.67;;
11230;SDS011;5672;51.060;3.734;2022-11-14T00:15:16;30.37;;;25.10;;
11230;SDS011;5672;51.060;3.734;2022-11-14T00:17:42;28.77;;;23.47;;
11230;SDS011;5672;51.060;3.734;2022-11-14T00:20:09;33.20;;;24.80;;
11230;SDS011;5672;51.060;3.734;2022-11-14T00:22:35;29.33;;;24.77;;
11230;SDS011;5672;51.060;3.734;2022-11-14T00:25:01;29.67;;;24.67;;
11230;SDS011;5672;51.060;3.734;2022-11-14T00:27:27;31.97;;;24.67;;
11230;SDS011;5672;51.060;3.734;2022-11-14T00:29:53;33.37;;;26.43;;
11230;SDS011;5672;51.060;3.734;2022-11-14T00:32:19;29.43;;;24.43;;
11230;SDS011;5672;51.060;3.734;2022-11-14T00:34:46;31.13;;;25.57;;
11230;SDS011;5672;51.060;3.734;2022-11-14T00:37:12;31.13;;;25.93;;
11230;SDS011;5672;51.060;3.734;2022-11-14T00:39:38;30.37;;;25.17;;
11230;SDS011;5672;51.060;3.734;2022-11-14T00:42:04;31.77;;;26.37;;
11230;SDS011;5672;51.060;3.734;2022-11-14T00:44:30;33.40;;;26.63;;
11230;SDS011;5672;51.060;3.734;2022-11-14T00:46:56;29.23;;;24.97;;
11230;SDS011;5672;51.060;3.734;2022-11-14T00:49:22;34.07;;;25.27;;
11230;SDS011;5672;51.060;3.734;2022-11-14T00:51:48;29.90;;;25.10;;
11230;SDS011;5672;51.060;3.734;2022-11-14T00:54:14;31.80;;;25.07;;
11230;SDS011;5672;51.060;3.734;2022-11-14T00:56:40;30.17;;;24.17;;
11230;SDS011;5672;51.060;3.734;2022-11-14T00:59:06;33.07;;;24.37;;
11230;SDS011;5672;51.060;3.734;2022-11-14T01:01:32;30.20;;;24.20;;
11230;SDS011;5672;51.060;3.734;2022-11-14T01:03:58;28.33;;;24.20;;
11230;SDS011;5672;51.060;3.734;2022-11-14T01:06:24;30.33;;;24.23;;
11230;SDS011;5672;51.060;3.734;2022-11-14T01:08:50;29.60;;;24.07;;
11230;SDS011;5672;51.060;3.734;2022-11-14T01:11:18;29.27;;;23.67;;
11230;SDS011;5672;51.060;3.734;2022-11-14T01:13:45;28.10;;;24.10;;
11230;SDS011;5672;51.060;3.734;2022-11-14T01:16:11;28.30;;;23.47;;
11230;SDS011;5672;51.060;3.734;2022-11-14T01:18:37;27.90;;;23.10;;
11230;SDS011;5672;51.060;3.734;2022-11-14T01:21:04;26.17;;;23.27;;
11230;SDS011;5672;51.060;3.734;2022-11-14T01:23:30;26.17;;;22.60;;
11230;SDS011;5672;51.060;3.734;2022-11-14T01:26:00;23.87;;;21.33;;
11230;SDS011;5672;51.060;3.734;2022-11-14T01:28:26;25.87;;;22.57;;
11230;SDS011;5672;51.060;3.734;2022-11-14T01:30:52;26.90;;;22.37;;
11230;SDS011;5672;51.060;3.734;2022-11-14T01:33:18;26.37;;;21.63;;
11230;SDS011;5672;51.060;3.734;2022-11-14T01:35:44;24.50;;;21.40;;
11230;SDS011;5672;51.060;3.734;2022-11-14T01:38:11;25.00;;;21.47;;
11230;SDS011;5672;51.060;3.734;2022-11-14T01:40:42;23.73;;;20.37;;
11230;SDS011;5672;51.060;3.734;2022-11-14T01:53:50;25.73;;;20.57;;
11230;SDS011;5672;51.060;3.734;2022-11-14T01:56:17;25.80;;;19.80;;
11230;SDS011;5672;51.060;3.734;2022-11-14T01:58:46;23.00;;;20.40;;
11230;SDS011;5672;51.060;3.734;2022-11-14T02:01:13;21.63;;;19.00;;
11230;SDS011;5672;51.060;3.734;2022-11-14T02:03:39;21.50;;;18.33;;
11230;SDS011;5672;51.060;3.734;2022-11-14T02:06:08;22.93;;;18.40;;
11230;SDS011;5672;51.060;3.734;2022-11-14T02:08:34;20.93;;;18.70;;
11230;SDS011;5672;51.060;3.734;2022-11-14T02:11:01;21.13;;;18.63;;
11230;SDS011;5672;51.060;3.734;2022-11-14T02:13:27;22.10;;;18.33;;
11230;SDS011;5672;51.060;3.734;2022-11-14T02:15:53;21.70;;;18.10;;
11230;SDS011;5672;51.060;3.734;2022-11-14T02:18:19;21.23;;;18.53;;
11230;SDS011;5672;51.060;3.734;2022-11-14T02:20:45;20.57;;;18.43;;
11230;SDS011;5672;51.060;3.734;2022-11-14T02:23:11;20.20;;;18.13;;
11230;SDS011;5672;51.060;3.734;2022-11-14T02:25:37;19.47;;;16.93;;
11230;SDS011;5672;51.060;3.734;2022-11-14T02:28:07;21.30;;;18.10;;
11230;SDS011;5672;51.060;3.734;2022-11-14T02:30:34;20.33;;;18.13;;
11230;SDS011;5672;51.060;3.734;2022-11-14T02:33:00;20.07;;;17.07;;
11230;SDS011;5672;51.060;3.734;2022-11-14T02:35:26;18.67;;;16.67;;
11230;SDS011;5672;51.060;3.734;2022-11-14T02:37:52;19.27;;;16.53;;
11230;SDS011;5672;51.060;3.734;2022-11-14T02:40:18;21.97;;;18.30;;
11230;SDS011;5672;51.060;3.734;2022-11-14T02:42:44;21.13;;;17.80;;
11230;SDS011;5672;51.060;3.734;2022-11-14T02:45:10;22.70;;;17.40;;
11230;SDS011;5672;51.060;3.734;2022-11-14T02:47:36;18.97;;;16.87;;
11230;SDS011;5672;51.060;3.734;2022-11-14T02:50:02;20.83;;;17.70;;
11230;SDS011;5672;51.060;3.734;2022-11-14T02:52:28;19.17;;;17.10;;
11230;SDS011;5672;51.060;3.734;2022-11-14T02:54:55;18.67;;;16.77;;
11230;SDS011;5672;51.060;3.734;2022-11-14T02:57:21;23.70;;;18.13;;
11230;SDS011;5672;51.060;3.734;2022-11-14T02:59:47;18.90;;;16.87;;
11230;SDS011;5672;51.060;3.734;2022-11-14T03:02:13;19.30;;;17.27;;
11230;SDS011;5672;51.060;3.734;2022-11-14T03:04:38;20.30;;;18.03;;
11230;SDS011;5672;51.060;3.734;2022-11-14T03:07:04;20.03;;;17.13;;
11230;SDS011;5672;51.060;3.734;2022-11-14T03:09:30;20.43;;;17.47;;
11230;SDS011;5672;51.060;3.734;2022-11-14T03:11:56;18.90;;;16.97;;
11230;SDS011;5672;51.060;3.734;2022-11-14T03:14:22;20.03;;;17.63;;
11230;SDS011;5672;51.060;3.734;2022-11-14T03:16:48;19.73;;;17.10;;
11230;SDS011;5672;51.060;3.734;2022-11-14T03:19:14;18.43;;;16.53;;
11230;SDS011;5672;51.060;3.734;2022-11-14T03:21:40;21.03;;;16.87;;
11230;SDS011;5672;51.060;3.734;2022-11-14T03:24:06;19.33;;;17.20;;
11230;SDS011;5672;51.060;3.734;2022-11-14T03:26:32;19.57;;;16.40;;
11230;SDS011;5672;51.060;3.734;2022-11-14T03:28:58;20.87;;;16.83;;
11230;SDS011;5672;51.060;3.734;2022-11-14T03:31:24;21.17;;;17.17;;
11230;SDS011;5672;51.060;3.734;2022-11-14T03:33:50;19.40;;;17.27;;
11230;SDS011;5672;51.060;3.734;2022-11-14T03:36:16;19.63;;;17.60;;
11230;SDS011;5672;51.060;3.734;2022-11-14T03:38:42;19.37;;;17.30;;
11230;SDS011;5672;51.060;3.734;2022-11-14T03:41:08;20.83;;;17.80;;
11230;SDS011;5672;51.060;3.734;2022-11-14T03:43:34;20.97;;;17.53;;
11230;SDS011;5672;51.060;3.734;2022-11-14T03:46:01;20.37;;;17.80;;
11230;SDS011;5672;51.060;3.734;2022-11-14T03:48:27;23.50;;;18.30;;
11230;SDS011;5672;51.060;3.734;2022-11-14T03:50:53;20.23;;;17.43;;
11230;SDS011;5672;51.060;3.734;2022-11-14T03:53:19;19.47;;;16.50;;
11230;SDS011;5672;51.060;3.734;2022-11-14T03:55:46;19.80;;;17.67;;
11230;SDS011;5672;51.060;3.734;2022-11-14T03:58:12;19.63;;;17.53;;
11230;SDS011;5672;51.060;3.734;2022-11-14T04:00:38;20.90;;;17.90;;
11230;SDS011;5672;51.060;3.734;2022-11-14T04:03:04;19.87;;;17.20;;
11230;SDS011;5672;51.060;3.734;2022-11-14T04:05:30;20.33;;;17.50;;
11230;SDS011;5672;51.060;3.734;2022-11-14T04:07:56;19.60;;;17.27;;
11230;SDS011;5672;51.060;3.734;2022-11-14T04:10:22;19.27;;;17.27;;
11230;SDS011;5672;51.060;3.734;2022-11-14T04:12:51;20.13;;;17.27;;
11230;SDS011;5672;51.060;3.734;2022-11-14T04:15:18;21.50;;;18.17;;
11230;SDS011;5672;51.060;3.734;2022-11-14T04:17:44;20.57;;;17.47;;
11230;SDS011;5672;51.060;3.734;2022-11-14T04:20:11;22.33;;;17.97;;
11230;SDS011;5672;51.060;3.734;2022-11-14T04:22:37;20.10;;;16.70;;
11230;SDS011;5672;51.060;3.734;2022-11-14T04:25:03;19.43;;;16.20;;
11230;SDS011;5672;51.060;3.734;2022-11-14T04:27:29;21.03;;;16.17;;
11230;SDS011;5672;51.060;3.734;2022-11-14T04:29:55;20.73;;;17.00;;
11230;SDS011;5672;51.060;3.734;2022-11-14T04:32:21;20.83;;;16.47;;
11230;SDS011;5672;51.060;3.734;2022-11-14T04:34:47;22.20;;;17.57;;
11230;SDS011;5672;51.060;3.734;2022-11-14T04:37:13;27.20;;;19.27;;
11230;SDS011;5672;51.060;3.734;2022-11-14T04:39:39;29.17;;;21.03;;
11230;SDS011;5672;51.060;3.734;2022-11-14T04:42:05;38.97;;;24.80;;
11230;SDS011;5672;51.060;3.734;2022-11-14T04:44:31;36.73;;;23.43;;
11230;SDS011;5672;51.060;3.734;2022-11-14T04:46:57;31.80;;;21.10;;
11230;SDS011;5672;51.060;3.734;2022-11-14T04:49:23;32.03;;;20.43;;
11230;SDS011;5672;51.060;3.734;2022-11-14T04:51:49;28.23;;;19.80;;
11230;SDS011;5672;51.060;3.734;2022-11-14T04:54:15;26.00;;;18.40;;
11230;SDS011;5672;51.060;3.734;2022-11-14T04:56:41;24.33;;;18.90;;
11230;SDS011;5672;51.060;3.734;2022-11-14T04:59:07;32.00;;;22.20;;
11230;SDS011;5672;51.060;3.734;2022-11-14T05:01:33;33.63;;;22.07;;
11230;SDS011;5672;51.060;3.734;2022-11-14T05:03:59;33.90;;;21.87;;
11230;SDS011;5672;51.060;3.734;2022-11-14T05:06:25;27.83;;;20.47;;
11230;SDS011;5672;51.060;3.734;2022-11-14T05:08:51;27.43;;;19.43;;
11230;SDS011;5672;51.060;3.734;2022-11-14T05:11:17;25.07;;;18.67;;
11230;SDS011;5672;51.060;3.734;2022-11-14T05:13:43;24.80;;;17.83;;
11230;SDS011;5672;51.060;3.734;2022-11-14T05:16:10;20.73;;;17.50;;
11230;SDS011;5672;51.060;3.734;2022-11-14T05:18:36;22.33;;;17.43;;
11230;SDS011;5672;51.060;3.734;2022-11-14T05:21:02;22.70;;;17.17;;
11230;SDS011;5672;51.060;3.734;2022-11-14T05:23:28;19.10;;;16.60;;
11230;SDS011;5672;51.060;3.734;2022-11-14T05:26:01;22.43;;;16.50;;
11230;SDS011;5672;51.060;3.734;2022-11-14T05:28:27;20.50;;;16.43;;
11230;SDS011;5672;51.060;3.734;2022-11-14T05:30:59;20.63;;;16.23;;
11230;SDS011;5672;51.060;3.734;2022-11-14T05:33:25;22.43;;;16.37;;
11230;SDS011;5672;51.060;3.734;2022-11-14T05:35:51;24.50;;;17.00;;
11230;SDS011;5672;51.060;3.734;2022-11-14T05:38:17;28.30;;;17.80;;
11230;SDS011;5672;51.060;3.734;2022-11-14T05:40:42;28.57;;;18.17;;
11230;SDS011;5672;51.060;3.734;2022-11-14T05:43:08;31.40;;;17.43;;
11230;SDS011;5672;51.060;3.734;2022-11-14T05:45:34;30.93;;;18.00;;
11230;SDS011;5672;51.060;3.734;2022-11-14T05:48:00;27.20;;;17.67;;
11230;SDS011;5672;51.060;3.734;2022-11-14T05:50:27;26.60;;;17.07;;
11230;SDS011;5672;51.060;3.734;2022-11-14T05:52:53;25.37;;;17.70;;
11230;SDS011;5672;51.060;3.734;2022-11-14T05:55:20;23.50;;;16.97;;
11230;SDS011;5672;51.060;3.734;2022-11-14T05:57:46;22.57;;;15.93;;
11230;SDS011;5672;51.060;3.734;2022-11-14T06:00:12;27.50;;;16.97;;
11230;SDS011;5672;51.060;3.734;2022-11-14T06:02:39;26.87;;;17.03;;
11230;SDS011;5672;51.060;3.734;2022-11-14T06:05:05;24.33;;;16.27;;
11230;SDS011;5672;51.060;3.734;2022-11-14T06:07:31;24.60;;;16.43;;
11230;SDS011;5672;51.060;3.734;2022-11-14T06:09:57;20.60;;;16.30;;
11230;SDS011;5672;51.060;3.734;2022-11-14T06:12:23;20.40;;;15.33;;
11230;SDS011;5672;51.060;3.734;2022-11-14T06:14:49;26.23;;;16.37;;
11230;SDS011;5672;51.060;3.734;2022-11-14T06:17:15;21.60;;;15.27;;
11230;SDS011;5672;51.060;3.734;2022-11-14T06:19:41;22.20;;;16.40;;
11230;SDS011;5672;51.060;3.734;2022-11-14T06:22:07;18.87;;;14.50;;
11230;SDS011;5672;51.060;3.734;2022-11-14T06:24:33;21.13;;;15.60;;
11230;SDS011;5672;51.060;3.734;2022-11-14T06:26:59;18.87;;;14.97;;
11230;SDS011;5672;51.060;3.734;2022-11-14T06:29:25;18.50;;;15.30;;
11230;SDS011;5672;51.060;3.734;2022-11-14T06:31:51;19.40;;;15.87;;
11230;SDS011;5672;51.060;3.734;2022-11-14T06:34:17;18.13;;;15.98;;
11230;SDS011;5672;51.060;3.734;2022-11-14T06:36:43;19.03;;;15.80;;
11230;SDS011;5672;51.060;3.734;2022-11-14T06:39:09;20.87;;;15.90;;
11230;SDS011;5672;51.060;3.734;2022-11-14T06:41:34;18.77;;;14.73;;
11230;SDS011;5672;51.060;3.734;2022-11-14T06:44:00;18.63;;;15.63;;
11230;SDS011;5672;51.060;3.734;2022-11-14T06:46:26;18.30;;;15.53;;
11230;SDS011;5672;51.060;3.734;2022-11-14T06:48:52;17.97;;;15.33;;
11230;SDS011;5672;51.060;3.734;2022-11-14T06:51:18;19.53;;;14.53;;
11230;SDS011;5672;51.060;3.734;2022-11-14T06:53:44;17.83;;;15.07;;
11230;SDS011;5672;51.060;3.734;2022-11-14T06:56:11;20.37;;;15.23;;
11230;SDS011;5672;51.060;3.734;2022-11-14T06:58:39;20.07;;;15.67;;
11230;SDS011;5672;51.060;3.734;2022-11-14T07:01:07;18.63;;;16.03;;
11230;SDS011;5672;51.060;3.734;2022-11-14T07:03:34;23.10;;;15.13;;
11230;SDS011;5672;51.060;3.734;2022-11-14T07:06:01;18.87;;;15.67;;
11230;SDS011;5672;51.060;3.734;2022-11-14T07:08:27;17.03;;;14.43;;
11230;SDS011;5672;51.060;3.734;2022-11-14T07:10:53;21.53;;;15.40;;
11230;SDS011;5672;51.060;3.734;2022-11-14T07:13:25;18.53;;;15.70;;
11230;SDS011;5672;51.060;3.734;2022-11-14T07:15:51;21.73;;;15.50;;
11230;SDS011;5672;51.060;3.734;2022-11-14T07:18:18;19.10;;;16.10;;
11230;SDS011;5672;51.060;3.734;2022-11-14T07:20:44;17.97;;;15.00;;
11230;SDS011;5672;51.060;3.734;2022-11-14T07:23:09;20.70;;;15.33;;
11230;SDS011;5672;51.060;3.734;2022-11-14T07:25:38;20.90;;;15.53;;
11230;SDS011;5672;51.060;3.734;2022-11-14T07:28:04;25.63;;;17.00;;
11230;SDS011;5672;51.060;3.734;2022-11-14T07:30:31;20.07;;;15.97;;
11230;SDS011;5672;51.060;3.734;2022-11-14T07:32:59;21.77;;;15.70;;
11230;SDS011;5672;51.060;3.734;2022-11-14T07:35:25;18.87;;;16.07;;
11230;SDS011;5672;51.060;3.734;2022-11-14T07:37:59;18.33;;;15.27;;
11230;SDS011;5672;51.060;3.734;2022-11-14T07:40:25;20.67;;;16.53;;
11230;SDS011;5672;51.060;3.734;2022-11-14T07:42:53;20.37;;;15.07;;
11230;SDS011;5672;51.060;3.734;2022-11-14T07:45:21;22.63;;;16.10;;
11230;SDS011;5672;51.060;3.734;2022-11-14T07:47:47;20.43;;;15.13;;
11230;SDS011;5672;51.060;3.734;2022-11-14T07:50:13;22.27;;;16.37;;
11230;SDS011;5672;51.060;3.734;2022-11-14T07:52:39;28.77;;;16.83;;
11230;SDS011;5672;51.060;3.734;2022-11-14T07:55:06;27.00;;;17.13;;
11230;SDS011;5672;51.060;3.734;2022-11-14T07:57:32;23.97;;;18.13;;
11230;SDS011;5672;51.060;3.734;2022-11-14T08:00:01;24.00;;;18.00;;
11230;SDS011;5672;51.060;3.734;2022-11-14T08:02:27;29.53;;;19.93;;
11230;SDS011;5672;51.060;3.734;2022-11-14T08:04:53;31.43;;;19.47;;
11230;SDS011;5672;51.060;3.734;2022-11-14T08:07:19;28.93;;;19.10;;
11230;SDS011;5672;51.060;3.734;2022-11-14T08:09:45;28.63;;;18.90;;
11230;SDS011;5672;51.060;3.734;2022-11-14T08:12:11;28.13;;;19.60;;
11230;SDS011;5672;51.060;3.734;2022-11-14T08:14:37;29.80;;;20.53;;
11230;SDS011;5672;51.060;3.734;2022-11-14T08:17:03;29.53;;;20.20;;
11230;SDS011;5672;51.060;3.734;2022-11-14T08:19:30;31.90;;;21.03;;
11230;SDS011;5672;51.060;3.734;2022-11-14T08:21:56;27.23;;;19.57;;
11230;SDS011;5672;51.060;3.734;2022-11-14T08:24:22;27.40;;;18.83;;
11230;SDS011;5672;51.060;3.734;2022-11-14T08:26:48;27.33;;;19.27;;
11230;SDS011;5672;51.060;3.734;2022-11-14T08:29:14;25.90;;;16.73;;
11230;SDS011;5672;51.060;3.734;2022-11-14T08:31:40;20.67;;;14.57;;
11230;SDS011;5672;51.060;3.734;2022-11-14T08:34:06;20.50;;;15.47;;
11230;SDS011;5672;51.060;3.734;2022-11-14T08:36:32;21.93;;;15.43;;
11230;SDS011;5672;51.060;3.734;2022-11-14T08:38:58;19.93;;;14.67;;
11230;SDS011;5672;51.060;3.734;2022-11-14T08:41:24;18.60;;;13.80;;
11230;SDS011;5672;51.060;3.734;2022-11-14T08:43:50;19.20;;;14.87;;
11230;SDS011;5672;51.060;3.734;2022-11-14T08:46:16;23.00;;;14.70;;
11230;SDS011;5672;51.060;3.734;2022-11-14T08:48:42;28.40;;;15.53;;
11230;SDS011;5672;51.060;3.734;2022-11-14T08:51:08;39.00;;;15.77;;
11230;SDS011;5672;51.060;3.734;2022-11-14T08:53:34;31.80;;;15.73;;
11230;SDS011;5672;51.060;3.734;2022-11-14T08:56:00;39.40;;;16.60;;
11230;SDS011;5672;51.060;3.734;2022-11-14T08:58:27;36.10;;;16.70;;
11230;SDS011;5672;51.060;3.734;2022-11-14T09:00:57;33.13;;;18.83;;
11230;SDS011;5672;51.060;3.734;2022-11-14T09:03:23;28.23;;;17.50;;
11230;SDS011;5672;51.060;3.734;2022-11-14T09:05:50;27.87;;;17.83;;
11230;SDS011;5672;51.060;3.734;2022-11-14T09:08:16;32.77;;;17.90;;
11230;SDS011;5672;51.060;3.734;2022-11-14T09:10:42;22.43;;;16.20;;
11230;SDS011;5672;51.060;3.734;2022-11-14T09:13:09;27.63;;;16.87;;
11230;SDS011;5672;51.060;3.734;2022-11-14T09:15:41;22.73;;;17.43;;
11230;SDS011;5672;51.060;3.734;2022-11-14T09:18:13;24.90;;;17.07;;
11230;SDS011;5672;51.060;3.734;2022-11-14T09:20:41;21.20;;;16.00;;
11230;SDS011;5672;51.060;3.734;2022-11-14T09:23:07;19.23;;;16.17;;
11230;SDS011;5672;51.060;3.734;2022-11-14T09:25:34;23.83;;;16.70;;
11230;SDS011;5672;51.060;3.734;2022-11-14T09:28:04;19.60;;;16.87;;
11230;SDS011;5672;51.060;3.734;2022-11-14T09:30:31;23.63;;;17.30;;
11230;SDS011;5672;51.060;3.734;2022-11-14T09:32:58;24.13;;;17.77;;
11230;SDS011;5672;51.060;3.734;2022-11-14T09:35:25;26.83;;;19.40;;
11230;SDS011;5672;51.060;3.734;2022-11-14T09:37:57;22.93;;;18.97;;
11230;SDS011;5672;51.060;3.734;2022-11-14T09:40:23;24.77;;;18.07;;
11230;SDS011;5672;51.060;3.734;2022-11-14T09:45:18;25.10;;;17.67;;
11230;SDS011;5672;51.060;3.734;2022-11-14T09:47:45;23.80;;;16.90;;
11230;SDS011;5672;51.060;3.734;2022-11-14T09:50:19;21.73;;;17.37;;
11230;SDS011;5672;51.060;3.734;2022-11-14T09:52:46;25.43;;;17.53;;
11230;SDS011;5672;51.060;3.734;2022-11-14T09:55:31;25.70;;;18.00;;
11230;SDS011;5672;51.060;3.734;2022-11-14T09:57:57;23.50;;;17.13;;
11230;SDS011;5672;51.060;3.734;2022-11-14T10:00:25;24.03;;;17.23;;
11230;SDS011;5672;51.060;3.734;2022-11-14T10:02:58;27.30;;;19.53;;
11230;SDS011;5672;51.060;3.734;2022-11-14T10:21:46;22.37;;;17.70;;
11230;SDS011;5672;51.060;3.734;2022-11-14T10:27:18;24.33;;;18.30;;
11230;SDS011;5672;51.060;3.734;2022-11-14T10:35:12;25.93;;;18.80;;
11230;SDS011;5672;51.060;3.734;2022-11-14T10:37:45;28.13;;;19.37;;
11230;SDS011;5672;51.060;3.734;2022-11-14T10:40:20;26.93;;;20.00;;
11230;SDS011;5672;51.060;3.734;2022-11-14T10:42:48;24.30;;;18.17;;
11230;SDS011;5672;51.060;3.734;2022-11-14T10:45:22;24.20;;;19.00;;
11230;SDS011;5672;51.060;3.734;2022-11-14T10:47:57;26.10;;;19.70;;
11230;SDS011;5672;51.060;3.734;2022-11-14T10:50:32;29.23;;;18.63;;
11230;SDS011;5672;51.060;3.734;2022-11-14T10:53:00;26.50;;;18.43;;
11230;SDS011;5672;51.060;3.734;2022-11-14T10:55:29;27.40;;;19.80;;
11230;SDS011;5672;51.060;3.734;2022-11-14T10:57:55;24.30;;;18.20;;
11230;SDS011;5672;51.060;3.734;2022-11-14T11:00:22;23.80;;;19.00;;
11230;SDS011;5672;51.060;3.734;2022-11-14T11:02:55;27.83;;;18.67;;
11230;SDS011;5672;51.060;3.734;2022-11-14T11:05:22;26.77;;;20.07;;
11230;SDS011;5672;51.060;3.734;2022-11-14T11:07:48;27.43;;;20.83;;
11230;SDS011;5672;51.060;3.734;2022-11-14T11:10:34;59.43;;;27.93;;
11230;SDS011;5672;51.060;3.734;2022-11-14T11:13:28;64.37;;;26.30;;
11230;SDS011;5672;51.060;3.734;2022-11-14T11:15:55;47.07;;;24.73;;
11230;SDS011;5672;51.060;3.734;2022-11-14T11:23:27;25.70;;;19.10;;
11230;SDS011;5672;51.060;3.734;2022-11-14T11:26:00;24.60;;;18.63;;
11230;SDS011;5672;51.060;3.734;2022-11-14T11:28:32;24.23;;;17.50;;
11230;SDS011;5672;51.060;3.734;2022-11-14T11:31:00;26.27;;;19.00;;
11230;SDS011;5672;51.060;3.734;2022-11-14T11:33:27;21.97;;;18.23;;
11230;SDS011;5672;51.060;3.734;2022-11-14T11:35:55;21.63;;;16.97;;
11230;SDS011;5672;51.060;3.734;2022-11-14T11:38:22;20.13;;;16.77;;
11230;SDS011;5672;51.060;3.734;2022-11-14T11:40:50;19.00;;;16.20;;
11230;SDS011;5672;51.060;3.734;2022-11-14T11:45:46;21.63;;;17.17;;
11230;SDS011;5672;51.060;3.734;2022-11-14T11:48:16;20.50;;;15.83;;
11230;SDS011;5672;51.060;3.734;2022-11-14T11:50:43;17.57;;;15.23;;
11230;SDS011;5672;51.060;3.734;2022-11-14T11:53:28;16.90;;;15.17;;
11230;SDS011;5672;51.060;3.734;2022-11-14T11:56:08;18.03;;;14.97;;
11230;SDS011;5672;51.060;3.734;2022-11-14T11:58:45;17.43;;;15.00;;
11230;SDS011;5672;51.060;3.734;2022-11-14T12:01:12;17.13;;;15.37;;
11230;SDS011;5672;51.060;3.734;2022-11-14T12:03:38;16.97;;;15.17;;
11230;SDS011;5672;51.060;3.734;2022-11-14T12:08:43;16.33;;;14.57;;
11230;SDS011;5672;51.060;3.734;2022-11-14T12:11:16;16.23;;;14.63;;
11230;SDS011;5672;51.060;3.734;2022-11-14T12:13:53;16.73;;;15.00;;
11230;SDS011;5672;51.060;3.734;2022-11-14T12:16:27;18.77;;;16.07;;
11230;SDS011;5672;51.060;3.734;2022-11-14T12:19:04;18.00;;;16.10;;
11230;SDS011;5672;51.060;3.734;2022-11-14T12:31:37;15.70;;;14.07;;
11230;SDS011;5672;51.060;3.734;2022-11-14T12:34:17;15.80;;;14.10;;
11230;SDS011;5672;51.060;3.734;2022-11-14T12:36:46;17.03;;;15.23;;
11230;SDS011;5672;51.060;3.734;2022-11-14T12:39:25;16.03;;;14.33;;
11230;SDS011;5672;51.060;3.734;2022-11-14T12:42:05;21.47;;;17.47;;
11230;SDS011;5672;51.060;3.734;2022-11-14T12:44:33;20.83;;;17.33;;
11230;SDS011;5672;51.060;3.734;2022-11-14T12:54:58;16.00;;;14.30;;
11230;SDS011;5672;51.060;3.734;2022-11-14T12:57:29;16.03;;;14.37;;
11230;SDS011;5672;51.060;3.734;2022-11-14T13:00:13;15.70;;;14.00;;
11230;SDS011;5672;51.060;3.734;2022-11-14T13:10:38;17.40;;;15.00;;
11230;SDS011;5672;51.060;3.734;2022-11-14T13:13:07;16.23;;;14.10;;
11230;SDS011;5672;51.060;3.734;2022-11-14T13:15:53;19.50;;;14.00;;
11230;SDS011;5672;51.060;3.734;2022-11-14T13:18:51;16.03;;;14.30;;
11230;SDS011;5672;51.060;3.734;2022-11-14T13:21:37;15.73;;;14.13;;
11230;SDS011;5672;51.060;3.734;2022-11-14T13:24:16;16.20;;;14.50;;
11230;SDS011;5672;51.060;3.734;2022-11-14T13:26:44;15.83;;;14.13;;
11230;SDS011;5672;51.060;3.734;2022-11-14T13:31:55;16.77;;;14.43;;
11230;SDS011;5672;51.060;3.734;2022-11-14T13:39:49;17.70;;;13.73;;
11230;SDS011;5672;51.060;3.734;2022-11-14T13:50:04;16.30;;;14.27;;
11230;SDS011;5672;51.060;3.734;2022-11-14T13:52:31;17.63;;;15.07;;
11230;SDS011;5672;51.060;3.734;2022-11-14T13:54:58;16.60;;;14.30;;
11230;SDS011;5672;51.060;3.734;2022-11-14T13:57:27;16.93;;;14.23;;
11230;SDS011;5672;51.060;3.734;2022-11-14T14:05:08;16.80;;;14.40;;
11230;SDS011;5672;51.060;3.734;2022-11-14T14:10:46;15.87;;;13.97;;
11230;SDS011;5672;51.060;3.734;2022-11-14T14:15:43;16.20;;;14.23;;
11230;SDS011;5672;51.060;3.734;2022-11-14T14:18:19;16.53;;;14.70;;
11230;SDS011;5672;51.060;3.734;2022-11-14T14:23:28;37.57;;;24.60;;
11230;SDS011;5672;51.060;3.734;2022-11-14T14:26:03;34.93;;;23.47;;
11230;SDS011;5672;51.060;3.734;2022-11-14T14:28:52;51.07;;;29.33;;
11230;SDS011;5672;51.060;3.734;2022-11-14T14:31:21;39.03;;;24.07;;
11230;SDS011;5672;51.060;3.734;2022-11-14T14:33:48;31.60;;;22.73;;
11230;SDS011;5672;51.060;3.734;2022-11-14T14:38:41;33.40;;;21.60;;
11230;SDS011;5672;51.060;3.734;2022-11-14T14:41:08;155.50;;;79.00;;
11230;SDS011;5672;51.060;3.734;2022-11-14T14:43:34;60.10;;;34.13;;
11230;SDS011;5672;51.060;3.734;2022-11-14T14:46:00;25.17;;;18.80;;
11230;SDS011;5672;51.060;3.734;2022-11-14T14:48:27;23.13;;;17.97;;
11230;SDS011;5672;51.060;3.734;2022-11-14T14:50:58;19.53;;;16.07;;
11230;SDS011;5672;51.060;3.734;2022-11-14T14:53:30;19.83;;;16.13;;
11230;SDS011;5672;51.060;3.734;2022-11-14T14:56:04;20.05;;;16.30;;
11230;SDS011;5672;51.060;3.734;2022-11-14T14:58:31;18.00;;;16.15;;
11230;SDS011;5672;51.060;3.734;2022-11-14T15:03:25;16.80;;;14.87;;
11230;SDS011;5672;51.060;3.734;2022-11-14T15:06:02;17.20;;;14.43;;
11230;SDS011;5672;51.060;3.734;2022-11-14T15:08:29;17.80;;;16.02;;
11230;SDS011;5672;51.060;3.734;2022-11-14T15:10:57;18.00;;;15.00;;
11230;SDS011;5672;51.060;3.734;2022-11-14T15:13:24;17.97;;;15.07;;
11230;SDS011;5672;51.060;3.734;2022-11-14T15:15:50;16.47;;;14.77;;
11230;SDS011;5672;51.060;3.734;2022-11-14T15:18:24;16.33;;;14.57;;
11230;SDS011;5672;51.060;3.734;2022-11-14T15:21:07;17.97;;;15.57;;
11230;SDS011;5672;51.060;3.734;2022-11-14T15:23:34;18.30;;;15.10;;
11230;SDS011;5672;51.060;3.734;2022-11-14T15:26:01;19.33;;;15.40;;
11230;SDS011;5672;51.060;3.734;2022-11-14T15:28:27;16.37;;;13.70;;
11230;SDS011;5672;51.060;3.734;2022-11-14T15:31:01;16.80;;;14.83;;
11230;SDS011;5672;51.060;3.734;2022-11-14T15:33:29;17.67;;;14.60;;
11230;SDS011;5672;51.060;3.734;2022-11-14T15:36:12;20.10;;;14.27;;
11230;SDS011;5672;51.060;3.734;2022-11-14T15:38:38;17.03;;;14.50;;
11230;SDS011;5672;51.060;3.734;2022-11-14T15:41:08;17.10;;;14.73;;
11230;SDS011;5672;51.060;3.734;2022-11-14T15:48:53;16.53;;;14.73;;
11230;SDS011;5672;51.060;3.734;2022-11-14T15:54:03;16.27;;;14.20;;
11230;SDS011;5672;51.060;3.734;2022-11-14T15:56:30;18.40;;;14.97;;
11230;SDS011;5672;51.060;3.734;2022-11-14T15:58:56;18.57;;;14.23;;
11230;SDS011;5672;51.060;3.734;2022-11-14T16:01:23;14.47;;;12.97;;
11230;SDS011;5672;51.060;3.734;2022-11-14T16:03:52;15.83;;;14.10;;
11230;SDS011;5672;51.060;3.734;2022-11-14T16:06:18;16.03;;;14.33;;
11230;SDS011;5672;51.060;3.734;2022-11-14T16:08:44;16.33;;;14.17;;
11230;SDS011;5672;51.060;3.734;2022-11-14T16:11:10;17.00;;;14.60;;
11230;SDS011;5672;51.060;3.734;2022-11-14T16:13:36;16.63;;;14.63;;
11230;SDS011;5672;51.060;3.734;2022-11-14T16:16:02;19.23;;;15.07;;
11230;SDS011;5672;51.060;3.734;2022-11-14T16:18:28;17.93;;;14.17;;
11230;SDS011;5672;51.060;3.734;2022-11-14T16:20:54;17.90;;;15.03;;
11230;SDS011;5672;51.060;3.734;2022-11-14T16:23:23;18.83;;;15.20;;
11230;SDS011;5672;51.060;3.734;2022-11-14T16:25:49;18.40;;;15.33;;
11230;SDS011;5672;51.060;3.734;2022-11-14T16:28:15;17.47;;;14.10;;
11230;SDS011;5672;51.060;3.734;2022-11-14T16:30:41;16.90;;;14.20;;
11230;SDS011;5672;51.060;3.734;2022-11-14T16:33:07;17.27;;;14.33;;